sensor_id;sensor_type;location;lat;lon;timestamp;temperature;humidity
11591;DHT22;5851;54.050;9.974;2023-07-22T00:02:11;15.60;89.30
11591;DHT22;5851;54.050;9.974;2023-07-22T00:04:37;15.60;88.50
11591;DHT22;5851;54.050;9.974;2023-07-22T00:07:05;15.70;89.70
11591;DHT22;5851;54.050;9.974;2023-07-22T00:09:32;15.60;90.20
11591;DHT22;5851;54.050;9.974;2023-07-22T00:12:01;15.50;89.10
11591;DHT22;5851;54.050;9.974;2023-07-22T00:14:28;15.50;90.10
11591;DHT22;5851;54.050;9.974;2023-07-22T00:16:56;15.50;89.10
11591;DHT22;5851;54.050;9.974;2023-07-22T00:19:23;15.50;89.40
11591;DHT22;5851;54.050;9.974;2023-07-22T00:21:50;15.50;89.60
11591;DHT22;5851;54.050;9.974;2023-07-22T00:24:17;15.50;90.00
11591;DHT22;5851;54.050;9.974;2023-07-22T00:26:44;15.50;89.90
11591;DHT22;5851;54.050;9.974;2023-07-22T00:29:12;15.40;90.10
11591;DHT22;5851;54.050;9.974;2023-07-22T00:31:39;15.30;90.10
11591;DHT22;5851;54.050;9.974;2023-07-22T00:34:07;15.40;89.60
11591;DHT22;5851;54.050;9.974;2023-07-22T00:36:34;15.40;89.60
11591;DHT22;5851;54.050;9.974;2023-07-22T00:39:01;15.50;88.70
11591;DHT22;5851;54.050;9.974;2023-07-22T00:41:28;15.50;89.90
11591;DHT22;5851;54.050;9.974;2023-07-22T00:43:55;15.40;88.90
11591;DHT22;5851;54.050;9.974;2023-07-22T00:46:23;15.50;89.80
11591;DHT22;5851;54.050;9.974;2023-07-22T00:48:51;15.30;90.30
11591;DHT22;5851;54.050;9.974;2023-07-22T00:51:18;15.40;90.00
11591;DHT22;5851;54.050;9.974;2023-07-22T00:53:46;15.40;89.70
11591;DHT22;5851;54.050;9.974;2023-07-22T00:56:13;15.40;89.70
11591;DHT22;5851;54.050;9.974;2023-07-22T00:58:40;15.40;90.00
11591;DHT22;5851;54.050;9.974;2023-07-22T01:01:07;15.40;89.30
11591;DHT22;5851;54.050;9.974;2023-07-22T01:03:35;15.40;89.60
11591;DHT22;5851;54.050;9.974;2023-07-22T01:06:02;15.30;89.10
11591;DHT22;5851;54.050;9.974;2023-07-22T01:08:29;15.30;89.20
11591;DHT22;5851;54.050;9.974;2023-07-22T01:10:56;15.30;90.00
11591;DHT22;5851;54.050;9.974;2023-07-22T01:13:23;15.10;90.40
11591;DHT22;5851;54.050;9.974;2023-07-22T01:15:50;15.10;90.40
11591;DHT22;5851;54.050;9.974;2023-07-22T01:18:17;15.00;90.00
11591;DHT22;5851;54.050;9.974;2023-07-22T01:20:46;15.20;90.10
11591;DHT22;5851;54.050;9.974;2023-07-22T01:23:14;15.10;90.20
11591;DHT22;5851;54.050;9.974;2023-07-22T01:25:42;15.10;90.00
11591;DHT22;5851;54.050;9.974;2023-07-22T01:28:10;15.10;89.60
11591;DHT22;5851;54.050;9.974;2023-07-22T01:30:37;15.10;89.50
11591;DHT22;5851;54.050;9.974;2023-07-22T01:33:05;15.10;89.50
11591;DHT22;5851;54.050;9.974;2023-07-22T01:35:32;15.00;90.00
11591;DHT22;5851;54.050;9.974;2023-07-22T01:37:59;14.90;90.20
11591;DHT22;5851;54.050;9.974;2023-07-22T01:40:27;14.90;90.10
11591;DHT22;5851;54.050;9.974;2023-07-22T01:42:54;14.90;89.90
11591;DHT22;5851;54.050;9.974;2023-07-22T01:45:21;14.90;89.80
11591;DHT22;5851;54.050;9.974;2023-07-22T01:47:48;14.90;90.30
11591;DHT22;5851;54.050;9.974;2023-07-22T01:50:14;15.00;90.00
11591;DHT22;5851;54.050;9.974;2023-07-22T01:52:44;15.00;89.70
11591;DHT22;5851;54.050;9.974;2023-07-22T01:55:12;15.00;89.20
11591;DHT22;5851;54.050;9.974;2023-07-22T01:57:41;14.90;89.90
11591;DHT22;5851;54.050;9.974;2023-07-22T02:00:09;14.80;90.00
11591;DHT22;5851;54.050;9.974;2023-07-22T02:02:36;14.80;90.00
11591;DHT22;5851;54.050;9.974;2023-07-22T02:05:04;14.90;90.00
11591;DHT22;5851;54.050;9.974;2023-07-22T02:07:31;14.90;89.20
11591;DHT22;5851;54.050;9.974;2023-07-22T02:09:58;14.90;90.00
11591;DHT22;5851;54.050;9.974;2023-07-22T02:12:25;14.80;89.70
11591;DHT22;5851;54.050;9.974;2023-07-22T02:14:53;14.80;90.10
11591;DHT22;5851;54.050;9.974;2023-07-22T02:17:21;14.80;89.30
11591;DHT22;5851;54.050;9.974;2023-07-22T02:19:49;14.80;89.50
11591;DHT22;5851;54.050;9.974;2023-07-22T02:22:16;14.80;89.30
11591;DHT22;5851;54.050;9.974;2023-07-22T02:24:43;14.80;89.10
11591;DHT22;5851;54.050;9.974;2023-07-22T02:27:10;14.80;89.70
11591;DHT22;5851;54.050;9.974;2023-07-22T02:29:37;14.70;89.80
11591;DHT22;5851;54.050;9.974;2023-07-22T02:32:06;14.70;89.60
11591;DHT22;5851;54.050;9.974;2023-07-22T02:34:34;14.70;89.20
11591;DHT22;5851;54.050;9.974;2023-07-22T02:37:00;14.70;89.20
11591;DHT22;5851;54.050;9.974;2023-07-22T02:39:27;14.70;89.60
11591;DHT22;5851;54.050;9.974;2023-07-22T02:41:54;14.80;88.90
11591;DHT22;5851;54.050;9.974;2023-07-22T02:44:21;14.60;89.70
11591;DHT22;5851;54.050;9.974;2023-07-22T02:46:48;14.60;89.80
11591;DHT22;5851;54.050;9.974;2023-07-22T02:49:16;14.60;90.00
11591;DHT22;5851;54.050;9.974;2023-07-22T02:51:43;14.50;90.00
11591;DHT22;5851;54.050;9.974;2023-07-22T02:54:10;14.60;89.40
11591;DHT22;5851;54.050;9.974;2023-07-22T02:56:37;14.60;89.70
11591;DHT22;5851;54.050;9.974;2023-07-22T02:59:04;14.60;89.70
11591;DHT22;5851;54.050;9.974;2023-07-22T03:01:31;14.50;89.80
11591;DHT22;5851;54.050;9.974;2023-07-22T03:03:58;14.50;89.50
11591;DHT22;5851;54.050;9.974;2023-07-22T03:06:26;14.50;89.60
11591;DHT22;5851;54.050;9.974;2023-07-22T03:08:54;14.50;90.10
11591;DHT22;5851;54.050;9.974;2023-07-22T03:11:23;14.40;90.10
11591;DHT22;5851;54.050;9.974;2023-07-22T03:13:50;14.50;90.00
11591;DHT22;5851;54.050;9.974;2023-07-22T03:16:17;14.50;89.90
11591;DHT22;5851;54.050;9.974;2023-07-22T03:18:44;14.40;89.70
11591;DHT22;5851;54.050;9.974;2023-07-22T03:21:11;14.30;90.10
11591;DHT22;5851;54.050;9.974;2023-07-22T03:23:39;14.20;90.30
11591;DHT22;5851;54.050;9.974;2023-07-22T03:26:06;14.10;90.40
11591;DHT22;5851;54.050;9.974;2023-07-22T03:28:33;14.20;90.60
11591;DHT22;5851;54.050;9.974;2023-07-22T03:31:00;14.30;90.10
11591;DHT22;5851;54.050;9.974;2023-07-22T03:33:27;14.20;90.30
11591;DHT22;5851;54.050;9.974;2023-07-22T03:35:54;14.20;90.40
11591;DHT22;5851;54.050;9.974;2023-07-22T03:38:21;14.30;90.70
11591;DHT22;5851;54.050;9.974;2023-07-22T03:40:49;14.30;90.80
11591;DHT22;5851;54.050;9.974;2023-07-22T03:43:18;14.20;90.60
11591;DHT22;5851;54.050;9.974;2023-07-22T03:45:45;14.20;90.60
11591;DHT22;5851;54.050;9.974;2023-07-22T03:48:12;14.20;90.80
11591;DHT22;5851;54.050;9.974;2023-07-22T03:50:39;14.30;90.80
11591;DHT22;5851;54.050;9.974;2023-07-22T03:53:06;14.30;90.60
11591;DHT22;5851;54.050;9.974;2023-07-22T03:55:33;14.30;90.70
11591;DHT22;5851;54.050;9.974;2023-07-22T03:58:01;14.30;90.80
11591;DHT22;5851;54.050;9.974;2023-07-22T04:00:28;14.20;91.10
11591;DHT22;5851;54.050;9.974;2023-07-22T04:02:55;14.20;90.90
11591;DHT22;5851;54.050;9.974;2023-07-22T04:05:21;14.30;90.70
11591;DHT22;5851;54.050;9.974;2023-07-22T04:07:48;14.20;90.90
11591;DHT22;5851;54.050;9.974;2023-07-22T04:10:15;14.30;90.60
11591;DHT22;5851;54.050;9.974;2023-07-22T04:12:42;14.30;90.60
11591;DHT22;5851;54.050;9.974;2023-07-22T04:15:10;14.30;90.60
11591;DHT22;5851;54.050;9.974;2023-07-22T04:17:38;14.30;91.00
11591;DHT22;5851;54.050;9.974;2023-07-22T04:20:06;14.20;90.80
11591;DHT22;5851;54.050;9.974;2023-07-22T04:22:34;14.30;90.70
11591;DHT22;5851;54.050;9.974;2023-07-22T04:25:01;14.40;90.40
11591;DHT22;5851;54.050;9.974;2023-07-22T04:27:28;14.40;90.70
11591;DHT22;5851;54.050;9.974;2023-07-22T04:29:55;14.40;90.60
11591;DHT22;5851;54.050;9.974;2023-07-22T04:32:24;14.40;90.60
11591;DHT22;5851;54.050;9.974;2023-07-22T04:34:50;14.40;90.60
11591;DHT22;5851;54.050;9.974;2023-07-22T04:37:17;14.40;90.70
11591;DHT22;5851;54.050;9.974;2023-07-22T04:39:48;14.40;90.70
11591;DHT22;5851;54.050;9.974;2023-07-22T04:42:15;14.40;90.70
11591;DHT22;5851;54.050;9.974;2023-07-22T04:44:42;14.40;90.90
11591;DHT22;5851;54.050;9.974;2023-07-22T04:47:09;14.30;90.80
11591;DHT22;5851;54.050;9.974;2023-07-22T04:49:38;14.20;90.90
11591;DHT22;5851;54.050;9.974;2023-07-22T04:52:06;14.30;90.80
11591;DHT22;5851;54.050;9.974;2023-07-22T04:54:33;14.30;90.80
11591;DHT22;5851;54.050;9.974;2023-07-22T04:57:00;14.20;91.00
11591;DHT22;5851;54.050;9.974;2023-07-22T04:59:28;14.20;91.00
11591;DHT22;5851;54.050;9.974;2023-07-22T05:01:55;14.40;91.00
11591;DHT22;5851;54.050;9.974;2023-07-22T05:04:22;14.40;90.40
11591;DHT22;5851;54.050;9.974;2023-07-22T05:06:50;14.40;90.40
11591;DHT22;5851;54.050;9.974;2023-07-22T05:09:17;14.40;91.10
11591;DHT22;5851;54.050;9.974;2023-07-22T05:11:44;14.40;91.00
11591;DHT22;5851;54.050;9.974;2023-07-22T05:14:11;14.50;91.10
11591;DHT22;5851;54.050;9.974;2023-07-22T05:16:38;14.60;90.90
11591;DHT22;5851;54.050;9.974;2023-07-22T05:19:04;14.60;91.20
11591;DHT22;5851;54.050;9.974;2023-07-22T05:21:33;14.60;90.70
11591;DHT22;5851;54.050;9.974;2023-07-22T05:24:02;14.60;90.40
11591;DHT22;5851;54.050;9.974;2023-07-22T05:26:29;14.60;90.30
11591;DHT22;5851;54.050;9.974;2023-07-22T05:28:56;14.60;91.10
11591;DHT22;5851;54.050;9.974;2023-07-22T05:31:23;14.70;90.60
11591;DHT22;5851;54.050;9.974;2023-07-22T05:33:50;14.70;90.50
11591;DHT22;5851;54.050;9.974;2023-07-22T05:36:17;14.80;90.30
11591;DHT22;5851;54.050;9.974;2023-07-22T05:38:44;14.90;90.80
11591;DHT22;5851;54.050;9.974;2023-07-22T05:41:12;14.90;90.30
11591;DHT22;5851;54.050;9.974;2023-07-22T05:43:39;15.00;90.60
11591;DHT22;5851;54.050;9.974;2023-07-22T05:46:06;15.00;90.30
11591;DHT22;5851;54.050;9.974;2023-07-22T05:48:33;15.00;90.80
11591;DHT22;5851;54.050;9.974;2023-07-22T05:51:00;15.10;90.50
11591;DHT22;5851;54.050;9.974;2023-07-22T05:53:27;15.20;90.60
11591;DHT22;5851;54.050;9.974;2023-07-22T05:55:54;15.30;90.80
11591;DHT22;5851;54.050;9.974;2023-07-22T05:58:22;15.40;90.70
11591;DHT22;5851;54.050;9.974;2023-07-22T06:00:49;15.40;90.90
11591;DHT22;5851;54.050;9.974;2023-07-22T06:03:17;15.40;90.20
11591;DHT22;5851;54.050;9.974;2023-07-22T06:05:46;15.40;90.50
11591;DHT22;5851;54.050;9.974;2023-07-22T06:08:13;15.30;90.90
11591;DHT22;5851;54.050;9.974;2023-07-22T06:10:41;15.40;91.60
11591;DHT22;5851;54.050;9.974;2023-07-22T06:13:07;15.70;91.50
11591;DHT22;5851;54.050;9.974;2023-07-22T06:15:36;15.60;90.40
11591;DHT22;5851;54.050;9.974;2023-07-22T06:18:03;15.70;91.20
11591;DHT22;5851;54.050;9.974;2023-07-22T06:20:33;15.70;90.00
11591;DHT22;5851;54.050;9.974;2023-07-22T06:23:01;15.60;90.50
11591;DHT22;5851;54.050;9.974;2023-07-22T06:25:28;15.60;90.00
11591;DHT22;5851;54.050;9.974;2023-07-22T06:27:54;15.50;89.50
11591;DHT22;5851;54.050;9.974;2023-07-22T06:30:22;15.40;89.70
11591;DHT22;5851;54.050;9.974;2023-07-22T06:32:50;15.40;90.00
11591;DHT22;5851;54.050;9.974;2023-07-22T06:35:17;15.50;90.40
11591;DHT22;5851;54.050;9.974;2023-07-22T06:37:44;15.50;89.70
11591;DHT22;5851;54.050;9.974;2023-07-22T06:40:11;15.50;90.10
11591;DHT22;5851;54.050;9.974;2023-07-22T06:42:38;15.60;89.90
11591;DHT22;5851;54.050;9.974;2023-07-22T06:45:05;15.70;91.30
11591;DHT22;5851;54.050;9.974;2023-07-22T06:47:32;16.00;90.90
11591;DHT22;5851;54.050;9.974;2023-07-22T06:50:02;16.20;90.90
11591;DHT22;5851;54.050;9.974;2023-07-22T06:52:29;16.10;89.70
11591;DHT22;5851;54.050;9.974;2023-07-22T06:54:57;15.90;88.70
11591;DHT22;5851;54.050;9.974;2023-07-22T06:57:23;16.00;90.60
11591;DHT22;5851;54.050;9.974;2023-07-22T06:59:53;16.10;90.70
11591;DHT22;5851;54.050;9.974;2023-07-22T07:02:19;16.10;90.40
11591;DHT22;5851;54.050;9.974;2023-07-22T07:04:46;16.30;90.50
11591;DHT22;5851;54.050;9.974;2023-07-22T07:07:15;16.20;90.00
11591;DHT22;5851;54.050;9.974;2023-07-22T07:09:42;16.10;89.30
11591;DHT22;5851;54.050;9.974;2023-07-22T07:12:09;16.00;88.90
11591;DHT22;5851;54.050;9.974;2023-07-22T07:14:36;16.10;90.00
11591;DHT22;5851;54.050;9.974;2023-07-22T07:17:03;16.30;90.30
11591;DHT22;5851;54.050;9.974;2023-07-22T07:19:30;16.30;90.50
11591;DHT22;5851;54.050;9.974;2023-07-22T07:21:57;16.50;89.70
11591;DHT22;5851;54.050;9.974;2023-07-22T07:24:25;16.30;87.60
11591;DHT22;5851;54.050;9.974;2023-07-22T07:26:53;16.50;88.90
11591;DHT22;5851;54.050;9.974;2023-07-22T07:29:20;16.50;90.90
11591;DHT22;5851;54.050;9.974;2023-07-22T07:31:47;16.50;89.00
11591;DHT22;5851;54.050;9.974;2023-07-22T07:34:14;16.60;89.10
11591;DHT22;5851;54.050;9.974;2023-07-22T07:36:40;16.40;85.80
11591;DHT22;5851;54.050;9.974;2023-07-22T07:39:07;16.40;85.60
11591;DHT22;5851;54.050;9.974;2023-07-22T07:41:36;16.40;86.20
11591;DHT22;5851;54.050;9.974;2023-07-22T07:44:03;16.70;87.80
11591;DHT22;5851;54.050;9.974;2023-07-22T07:46:30;17.00;88.30
11591;DHT22;5851;54.050;9.974;2023-07-22T07:48:59;17.00;86.50
11591;DHT22;5851;54.050;9.974;2023-07-22T07:51:28;16.70;86.00
11591;DHT22;5851;54.050;9.974;2023-07-22T07:53:56;16.80;86.10
11591;DHT22;5851;54.050;9.974;2023-07-22T07:56:24;16.80;87.10
11591;DHT22;5851;54.050;9.974;2023-07-22T07:58:53;16.90;86.40
11591;DHT22;5851;54.050;9.974;2023-07-22T08:01:21;16.80;85.70
11591;DHT22;5851;54.050;9.974;2023-07-22T08:03:47;16.70;85.50
11591;DHT22;5851;54.050;9.974;2023-07-22T08:06:14;16.70;86.30
11591;DHT22;5851;54.050;9.974;2023-07-22T08:08:41;16.80;83.70
11591;DHT22;5851;54.050;9.974;2023-07-22T08:11:10;16.70;83.20
11591;DHT22;5851;54.050;9.974;2023-07-22T08:13:39;17.00;83.80
11591;DHT22;5851;54.050;9.974;2023-07-22T08:16:08;17.00;83.70
11591;DHT22;5851;54.050;9.974;2023-07-22T08:18:36;16.90;82.60
11591;DHT22;5851;54.050;9.974;2023-07-22T08:21:04;17.00;83.60
11591;DHT22;5851;54.050;9.974;2023-07-22T08:23:32;17.30;80.80
11591;DHT22;5851;54.050;9.974;2023-07-22T08:25:59;17.10;81.00
11591;DHT22;5851;54.050;9.974;2023-07-22T08:28:26;17.10;79.90
11591;DHT22;5851;54.050;9.974;2023-07-22T08:30:54;17.00;78.70
11591;DHT22;5851;54.050;9.974;2023-07-22T08:33:24;17.00;78.10
11591;DHT22;5851;54.050;9.974;2023-07-22T08:35:51;17.00;77.30
11591;DHT22;5851;54.050;9.974;2023-07-22T08:38:18;17.00;77.30
11591;DHT22;5851;54.050;9.974;2023-07-22T08:40:48;16.90;76.80
11591;DHT22;5851;54.050;9.974;2023-07-22T08:43:15;16.80;79.20
11591;DHT22;5851;54.050;9.974;2023-07-22T08:45:47;16.70;81.70
11591;DHT22;5851;54.050;9.974;2023-07-22T08:48:16;16.80;83.40
11591;DHT22;5851;54.050;9.974;2023-07-22T08:50:49;17.00;83.70
11591;DHT22;5851;54.050;9.974;2023-07-22T08:53:17;17.20;83.70
11591;DHT22;5851;54.050;9.974;2023-07-22T08:55:45;17.20;83.00
11591;DHT22;5851;54.050;9.974;2023-07-22T08:58:13;17.40;82.70
11591;DHT22;5851;54.050;9.974;2023-07-22T09:00:40;17.20;80.30
11591;DHT22;5851;54.050;9.974;2023-07-22T09:03:07;17.20;81.40
11591;DHT22;5851;54.050;9.974;2023-07-22T09:05:35;17.00;81.70
11591;DHT22;5851;54.050;9.974;2023-07-22T09:08:06;17.00;82.30
11591;DHT22;5851;54.050;9.974;2023-07-22T09:10:33;17.00;82.40
11591;DHT22;5851;54.050;9.974;2023-07-22T09:13:02;17.00;82.70
11591;DHT22;5851;54.050;9.974;2023-07-22T09:15:29;16.90;82.20
11591;DHT22;5851;54.050;9.974;2023-07-22T09:17:56;16.90;83.50
11591;DHT22;5851;54.050;9.974;2023-07-22T09:20:23;16.90;83.30
11591;DHT22;5851;54.050;9.974;2023-07-22T09:22:51;16.80;85.20
11591;DHT22;5851;54.050;9.974;2023-07-22T09:25:20;16.80;85.70
11591;DHT22;5851;54.050;9.974;2023-07-22T09:27:48;17.00;87.90
11591;DHT22;5851;54.050;9.974;2023-07-22T09:30:22;17.00;86.50
11591;DHT22;5851;54.050;9.974;2023-07-22T09:32:49;17.10;86.40
11591;DHT22;5851;54.050;9.974;2023-07-22T09:35:17;17.00;85.10
11591;DHT22;5851;54.050;9.974;2023-07-22T09:37:44;16.90;84.30
11591;DHT22;5851;54.050;9.974;2023-07-22T09:40:15;17.00;86.70
11591;DHT22;5851;54.050;9.974;2023-07-22T09:42:45;17.20;85.20
11591;DHT22;5851;54.050;9.974;2023-07-22T09:45:12;17.10;84.20
11591;DHT22;5851;54.050;9.974;2023-07-22T09:47:40;17.30;85.20
11591;DHT22;5851;54.050;9.974;2023-07-22T09:50:11;17.50;84.90
11591;DHT22;5851;54.050;9.974;2023-07-22T09:52:45;17.30;83.10
11591;DHT22;5851;54.050;9.974;2023-07-22T09:55:12;17.30;81.00
11591;DHT22;5851;54.050;9.974;2023-07-22T09:57:45;17.30;81.90
11591;DHT22;5851;54.050;9.974;2023-07-22T10:00:14;17.50;81.20
11591;DHT22;5851;54.050;9.974;2023-07-22T10:02:42;17.50;80.70
11591;DHT22;5851;54.050;9.974;2023-07-22T10:05:14;17.60;80.00
11591;DHT22;5851;54.050;9.974;2023-07-22T10:07:44;17.70;82.50
11591;DHT22;5851;54.050;9.974;2023-07-22T10:10:12;17.80;81.00
11591;DHT22;5851;54.050;9.974;2023-07-22T10:12:40;17.80;79.90
11591;DHT22;5851;54.050;9.974;2023-07-22T10:15:10;17.70;80.10
11591;DHT22;5851;54.050;9.974;2023-07-22T10:17:38;17.70;81.00
11591;DHT22;5851;54.050;9.974;2023-07-22T10:20:06;17.60;80.70
11591;DHT22;5851;54.050;9.974;2023-07-22T10:22:35;17.50;80.80
11591;DHT22;5851;54.050;9.974;2023-07-22T10:25:04;17.50;81.50
11591;DHT22;5851;54.050;9.974;2023-07-22T10:27:32;17.60;80.60
11591;DHT22;5851;54.050;9.974;2023-07-22T10:29:59;17.70;79.30
11591;DHT22;5851;54.050;9.974;2023-07-22T10:32:33;17.80;79.20
11591;DHT22;5851;54.050;9.974;2023-07-22T10:35:01;18.10;77.80
11591;DHT22;5851;54.050;9.974;2023-07-22T10:37:32;18.20;76.50
11591;DHT22;5851;54.050;9.974;2023-07-22T10:40:00;18.10;74.40
11591;DHT22;5851;54.050;9.974;2023-07-22T10:42:28;18.00;74.80
11591;DHT22;5851;54.050;9.974;2023-07-22T10:45:00;17.80;76.00
11591;DHT22;5851;54.050;9.974;2023-07-22T10:47:35;17.90;76.50
11591;DHT22;5851;54.050;9.974;2023-07-22T10:50:07;17.80;76.10
11591;DHT22;5851;54.050;9.974;2023-07-22T10:52:40;17.90;76.80
11591;DHT22;5851;54.050;9.974;2023-07-22T10:55:18;17.90;76.50
11591;DHT22;5851;54.050;9.974;2023-07-22T10:57:49;17.60;78.70
11591;DHT22;5851;54.050;9.974;2023-07-22T11:00:20;17.40;81.60
11591;DHT22;5851;54.050;9.974;2023-07-22T11:03:09;16.70;84.80
11591;DHT22;5851;54.050;9.974;2023-07-22T11:05:49;16.80;85.10
11591;DHT22;5851;54.050;9.974;2023-07-22T11:08:35;16.60;87.30
11591;DHT22;5851;54.050;9.974;2023-07-22T11:11:03;16.30;88.50
11591;DHT22;5851;54.050;9.974;2023-07-22T11:13:30;16.30;88.00
11591;DHT22;5851;54.050;9.974;2023-07-22T11:16:01;16.40;87.00
11591;DHT22;5851;54.050;9.974;2023-07-22T11:18:39;16.40;87.00
11591;DHT22;5851;54.050;9.974;2023-07-22T11:21:08;16.40;89.80
11591;DHT22;5851;54.050;9.974;2023-07-22T11:23:35;16.60;88.20
11591;DHT22;5851;54.050;9.974;2023-07-22T11:26:03;16.60;89.30
11591;DHT22;5851;54.050;9.974;2023-07-22T11:28:31;16.60;90.00
11591;DHT22;5851;54.050;9.974;2023-07-22T11:30:57;16.80;88.40
11591;DHT22;5851;54.050;9.974;2023-07-22T11:33:24;17.00;90.00
11591;DHT22;5851;54.050;9.974;2023-07-22T11:35:52;17.00;90.00
11591;DHT22;5851;54.050;9.974;2023-07-22T11:38:19;17.10;89.10
11591;DHT22;5851;54.050;9.974;2023-07-22T11:40:47;17.20;87.80
11591;DHT22;5851;54.050;9.974;2023-07-22T11:43:14;17.20;88.20
11591;DHT22;5851;54.050;9.974;2023-07-22T11:45:41;17.30;89.10
11591;DHT22;5851;54.050;9.974;2023-07-22T11:48:12;17.40;88.80
11591;DHT22;5851;54.050;9.974;2023-07-22T11:50:39;17.50;88.20
11591;DHT22;5851;54.050;9.974;2023-07-22T11:53:08;17.50;89.70
11591;DHT22;5851;54.050;9.974;2023-07-22T11:55:37;17.60;88.20
11591;DHT22;5851;54.050;9.974;2023-07-22T11:58:04;17.60;87.90
11591;DHT22;5851;54.050;9.974;2023-07-22T12:00:33;17.70;89.90
11591;DHT22;5851;54.050;9.974;2023-07-22T12:03:05;17.80;85.90
11591;DHT22;5851;54.050;9.974;2023-07-22T12:05:35;17.70;83.60
11591;DHT22;5851;54.050;9.974;2023-07-22T12:08:03;17.80;82.50
11591;DHT22;5851;54.050;9.974;2023-07-22T12:10:33;17.70;81.40
11591;DHT22;5851;54.050;9.974;2023-07-22T12:13:01;17.80;80.30
11591;DHT22;5851;54.050;9.974;2023-07-22T12:15:28;17.80;80.40
11591;DHT22;5851;54.050;9.974;2023-07-22T12:17:56;17.80;78.70
11591;DHT22;5851;54.050;9.974;2023-07-22T12:20:24;17.80;77.90
11591;DHT22;5851;54.050;9.974;2023-07-22T12:22:51;17.80;77.40
11591;DHT22;5851;54.050;9.974;2023-07-22T12:25:18;17.80;77.10
11591;DHT22;5851;54.050;9.974;2023-07-22T12:27:46;17.80;78.00
11591;DHT22;5851;54.050;9.974;2023-07-22T12:30:13;17.80;76.20
11591;DHT22;5851;54.050;9.974;2023-07-22T12:32:41;17.80;76.90
11591;DHT22;5851;54.050;9.974;2023-07-22T12:35:08;17.70;76.70
11591;DHT22;5851;54.050;9.974;2023-07-22T12:37:35;17.70;75.10
11591;DHT22;5851;54.050;9.974;2023-07-22T12:40:03;17.60;74.00
11591;DHT22;5851;54.050;9.974;2023-07-22T12:42:31;17.60;74.40
11591;DHT22;5851;54.050;9.974;2023-07-22T12:44:59;17.60;74.90
11591;DHT22;5851;54.050;9.974;2023-07-22T12:47:26;17.60;74.70
11591;DHT22;5851;54.050;9.974;2023-07-22T12:49:53;17.60;74.20
11591;DHT22;5851;54.050;9.974;2023-07-22T12:52:20;17.60;75.30
11591;DHT22;5851;54.050;9.974;2023-07-22T12:54:47;17.60;74.70
11591;DHT22;5851;54.050;9.974;2023-07-22T12:57:14;17.60;75.10
11591;DHT22;5851;54.050;9.974;2023-07-22T12:59:40;17.60;74.90
11591;DHT22;5851;54.050;9.974;2023-07-22T13:02:09;17.60;75.60
11591;DHT22;5851;54.050;9.974;2023-07-22T13:04:36;17.70;76.80
11591;DHT22;5851;54.050;9.974;2023-07-22T13:07:02;17.70;76.90
11591;DHT22;5851;54.050;9.974;2023-07-22T13:09:29;17.80;77.20
11591;DHT22;5851;54.050;9.974;2023-07-22T13:11:56;17.70;77.90
11591;DHT22;5851;54.050;9.974;2023-07-22T13:14:23;17.70;77.10
11591;DHT22;5851;54.050;9.974;2023-07-22T13:16:50;17.70;78.10
11591;DHT22;5851;54.050;9.974;2023-07-22T13:19:18;17.50;79.40
11591;DHT22;5851;54.050;9.974;2023-07-22T13:21:45;17.40;81.40
11591;DHT22;5851;54.050;9.974;2023-07-22T13:24:12;17.30;81.90
11591;DHT22;5851;54.050;9.974;2023-07-22T13:26:39;17.20;82.60
11591;DHT22;5851;54.050;9.974;2023-07-22T13:29:06;17.20;84.00
11591;DHT22;5851;54.050;9.974;2023-07-22T13:31:34;17.10;84.00
11591;DHT22;5851;54.050;9.974;2023-07-22T13:34:01;17.10;83.00
11591;DHT22;5851;54.050;9.974;2023-07-22T13:36:29;17.10;84.50
11591;DHT22;5851;54.050;9.974;2023-07-22T13:38:56;17.00;84.40
11591;DHT22;5851;54.050;9.974;2023-07-22T13:41:23;17.00;85.00
11591;DHT22;5851;54.050;9.974;2023-07-22T13:43:50;17.00;85.00
11591;DHT22;5851;54.050;9.974;2023-07-22T13:46:18;16.70;85.70
11591;DHT22;5851;54.050;9.974;2023-07-22T13:48:45;16.70;86.00
11591;DHT22;5851;54.050;9.974;2023-07-22T13:51:12;16.80;86.40
11591;DHT22;5851;54.050;9.974;2023-07-22T13:53:40;16.70;86.90
11591;DHT22;5851;54.050;9.974;2023-07-22T13:56:07;16.70;87.40
11591;DHT22;5851;54.050;9.974;2023-07-22T13:58:34;16.70;87.20
11591;DHT22;5851;54.050;9.974;2023-07-22T14:01:01;16.80;86.60
11591;DHT22;5851;54.050;9.974;2023-07-22T14:03:28;16.90;86.70
11591;DHT22;5851;54.050;9.974;2023-07-22T14:05:56;16.90;87.30
11591;DHT22;5851;54.050;9.974;2023-07-22T14:08:23;16.90;86.30
11591;DHT22;5851;54.050;9.974;2023-07-22T14:10:51;17.00;86.70
11591;DHT22;5851;54.050;9.974;2023-07-22T14:13:18;16.90;86.20
11591;DHT22;5851;54.050;9.974;2023-07-22T14:15:45;16.80;86.40
11591;DHT22;5851;54.050;9.974;2023-07-22T14:18:12;16.80;86.80
11591;DHT22;5851;54.050;9.974;2023-07-22T14:20:42;16.80;87.00
11591;DHT22;5851;54.050;9.974;2023-07-22T14:23:09;16.90;86.90
11591;DHT22;5851;54.050;9.974;2023-07-22T14:25:36;16.90;87.00
11591;DHT22;5851;54.050;9.974;2023-07-22T14:28:04;16.80;87.90
11591;DHT22;5851;54.050;9.974;2023-07-22T14:30:32;16.80;87.30
11591;DHT22;5851;54.050;9.974;2023-07-22T14:32:59;16.80;87.00
11591;DHT22;5851;54.050;9.974;2023-07-22T14:35:26;16.80;87.00
11591;DHT22;5851;54.050;9.974;2023-07-22T14:37:53;16.80;87.60
11591;DHT22;5851;54.050;9.974;2023-07-22T14:40:19;16.80;87.50
11591;DHT22;5851;54.050;9.974;2023-07-22T14:42:46;16.80;87.70
11591;DHT22;5851;54.050;9.974;2023-07-22T14:45:15;16.70;87.50
11591;DHT22;5851;54.050;9.974;2023-07-22T14:47:42;16.70;87.70
11591;DHT22;5851;54.050;9.974;2023-07-22T14:50:09;16.80;88.20
11591;DHT22;5851;54.050;9.974;2023-07-22T14:52:36;16.80;87.50
11591;DHT22;5851;54.050;9.974;2023-07-22T14:55:04;16.80;87.70
11591;DHT22;5851;54.050;9.974;2023-07-22T14:57:33;16.80;89.00
11591;DHT22;5851;54.050;9.974;2023-07-22T15:00:00;16.80;88.60
11591;DHT22;5851;54.050;9.974;2023-07-22T15:02:28;16.90;88.60
11591;DHT22;5851;54.050;9.974;2023-07-22T15:04:55;16.80;87.80
11591;DHT22;5851;54.050;9.974;2023-07-22T15:07:22;16.80;87.80
11591;DHT22;5851;54.050;9.974;2023-07-22T15:09:51;16.80;89.30
11591;DHT22;5851;54.050;9.974;2023-07-22T15:12:19;16.80;88.00
11591;DHT22;5851;54.050;9.974;2023-07-22T15:14:46;16.90;87.50
11591;DHT22;5851;54.050;9.974;2023-07-22T15:17:13;16.90;89.90
11591;DHT22;5851;54.050;9.974;2023-07-22T15:19:41;16.80;88.30
11591;DHT22;5851;54.050;9.974;2023-07-22T15:22:08;16.80;88.50
11591;DHT22;5851;54.050;9.974;2023-07-22T15:24:35;16.80;88.20
11591;DHT22;5851;54.050;9.974;2023-07-22T15:27:01;16.80;88.30
11591;DHT22;5851;54.050;9.974;2023-07-22T15:29:28;16.90;88.90
11591;DHT22;5851;54.050;9.974;2023-07-22T15:31:55;16.90;89.20
11591;DHT22;5851;54.050;9.974;2023-07-22T15:34:22;16.90;90.10
11591;DHT22;5851;54.050;9.974;2023-07-22T15:36:50;16.90;88.70
11591;DHT22;5851;54.050;9.974;2023-07-22T15:39:17;16.90;88.60
11591;DHT22;5851;54.050;9.974;2023-07-22T15:41:44;16.90;88.90
11591;DHT22;5851;54.050;9.974;2023-07-22T15:44:11;16.90;88.70
11591;DHT22;5851;54.050;9.974;2023-07-22T15:46:38;16.90;88.40
11591;DHT22;5851;54.050;9.974;2023-07-22T15:49:05;16.90;89.20